Time;durP1;ratioP1;P1;durP2;ratioP2;P2;SDS_P1;SDS_P2;PMS_P1;PMS_P2;Temp;Humidity;BMP_temperature;BMP_pressure;BME280_temperature;BME280_humidity;BME280_pressure;Samples;Min_cycle;Max_cycle;Signal;HPM_P1;HPM_P2
2021/09/21 00:01:53;;;;;;;17.83;13.63;;;6.40;99.90;;;;;;4142024;28;20030;-73
2021/09/21 00:03:53;;;;;;;22.02;13.63;;;6.40;99.90;;;;;;4144220;28;20409;-73
2021/09/21 00:05:54;;;;;;;24.55;13.82;;;6.40;99.90;;;;;;4140539;28;20046;-72
2021/09/21 00:07:54;;;;;;;18.95;14.60;;;6.40;99.90;;;;;;4136305;28;20180;-74
2021/09/21 00:09:55;;;;;;;17.95;12.18;;;6.40;99.90;;;;;;4141305;28;20037;-74
2021/09/21 00:11:56;;;;;;;19.95;13.27;;;6.40;99.90;;;;;;4145731;28;20512;-74
2021/09/21 00:13:57;;;;;;;16.98;12.18;;;6.30;99.90;;;;;;4143576;28;20111;-74
2021/09/21 00:15:58;;;;;;;21.92;13.52;;;6.30;99.90;;;;;;4148838;28;20542;-74
2021/09/21 00:17:59;;;;;;;21.27;14.23;;;6.30;99.90;;;;;;4146536;28;20030;-74
2021/09/21 00:20:00;;;;;;;20.42;14.10;;;6.20;99.90;;;;;;4148261;28;20053;-74
2021/09/21 00:22:01;;;;;;;21.52;14.10;;;6.20;99.90;;;;;;4145910;28;20026;-73
2021/09/21 00:24:02;;;;;;;21.05;13.50;;;6.20;99.90;;;;;;4148938;28;20026;-73
2021/09/21 00:26:03;;;;;;;20.98;14.30;;;6.20;99.90;;;;;;4146931;28;20026;-74
2021/09/21 00:28:04;;;;;;;19.65;14.48;;;6.20;99.90;;;;;;4148575;28;20045;-74
2021/09/21 00:30:06;;;;;;;19.20;14.20;;;6.20;99.90;;;;;;4143029;28;20064;-74
2021/09/21 00:32:13;;;;;;;23.08;15.15;;;6.20;99.90;;;;;;4145443;28;20040;-74
2021/09/21 00:34:15;;;;;;;15.98;12.57;;;;;;;;;;4148310;28;20030;-73
2021/09/21 00:36:17;;;;;;;21.13;13.93;;;6.20;99.90;;;;;;4147127;28;20077;-74
2021/09/21 00:38:18;;;;;;;17.52;13.10;;;6.20;99.90;;;;;;4149339;28;20030;-74
2021/09/21 00:40:19;;;;;;;18.80;13.68;;;6.20;99.90;;;;;;4147960;28;20045;-74
2021/09/21 00:42:26;;;;;;;24.60;15.57;;;6.20;99.90;;;;;;4148233;28;20036;-73
2021/09/21 00:44:27;;;;;;;25.60;15.00;;;6.20;99.90;;;;;;4142726;28;20034;-74
2021/09/21 00:46:28;;;;;;;21.67;14.82;;;6.20;99.90;;;;;;4153086;28;20053;-74
2021/09/21 00:48:28;;;;;;;19.65;15.30;;;6.20;99.90;;;;;;4147094;28;20072;-74
2021/09/21 00:50:30;;;;;;;22.33;14.07;;;6.20;99.90;;;;;;4146454;28;20029;-74
2021/09/21 00:52:31;;;;;;;17.75;14.10;;;6.20;99.90;;;;;;4148660;28;20041;-74
2021/09/21 00:54:32;;;;;;;21.25;14.55;;;6.20;99.90;;;;;;4148702;28;20034;-73
2021/09/21 00:56:33;;;;;;;21.73;14.75;;;6.10;99.90;;;;;;4146954;28;20505;-74
2021/09/21 00:58:34;;;;;;;21.73;13.55;;;6.10;99.90;;;;;;4145072;28;20125;-74
2021/09/21 01:00:35;;;;;;;25.13;15.25;;;6.10;99.90;;;;;;4148402;28;20026;-74
2021/09/21 01:02:35;;;;;;;19.17;13.90;;;6.10;99.90;;;;;;4145088;28;20808;-74
2021/09/21 01:04:37;;;;;;;20.17;14.48;;;6.10;99.90;;;;;;4147743;28;20041;-74
2021/09/21 01:06:38;;;;;;;22.25;15.07;;;6.10;99.90;;;;;;4146992;28;20608;-74
2021/09/21 01:08:42;;;;;;;22.83;16.73;;;6.10;99.90;;;;;;4147271;28;20061;-74
2021/09/21 01:10:43;;;;;;;28.25;16.40;;;6.00;99.90;;;;;;4147497;28;20470;-74
2021/09/21 01:12:44;;;;;;;23.92;16.10;;;6.00;99.90;;;;;;4146368;28;20141;-74
2021/09/21 01:14:45;;;;;;;24.20;15.48;;;5.90;99.90;;;;;;4146440;28;20034;-74
2021/09/21 01:16:46;;;;;;;24.38;16.15;;;5.90;99.90;;;;;;4145848;28;20206;-74
2021/09/21 01:18:48;;;;;;;22.20;15.52;;;5.90;99.90;;;;;;4148485;28;20037;-74
2021/09/21 01:20:49;;;;;;;26.80;16.73;;;5.90;99.90;;;;;;4145625;28;20499;-74
2021/09/21 01:22:49;;;;;;;22.58;15.75;;;5.90;99.90;;;;;;4147881;28;20072;-74
2021/09/21 01:24:50;;;;;;;25.38;17.17;;;6.00;99.90;;;;;;4147129;28;20381;-73
2021/09/21 01:26:51;;;;;;;23.85;16.35;;;6.00;99.90;;;;;;4147351;28;20048;-74
2021/09/21 01:28:52;;;;;;;19.63;15.13;;;6.00;99.90;;;;;;4144411;28;20061;-73
2021/09/21 01:30:52;;;;;;;24.13;15.07;;;6.00;99.90;;;;;;4149857;28;20057;-74
2021/09/21 01:32:53;;;;;;;23.77;16.05;;;6.00;99.90;;;;;;4146265;28;20041;-73
2021/09/21 01:34:54;;;;;;;23.85;16.77;;;6.00;99.90;;;;;;4147490;28;20105;-74
2021/09/21 01:36:55;;;;;;;27.45;16.70;;;6.00;99.90;;;;;;4135954;28;20041;-73
2021/09/21 01:38:56;;;;;;;24.77;16.13;;;6.10;99.90;;;;;;4144195;28;20030;-74
2021/09/21 01:40:56;;;;;;;25.65;16.02;;;6.10;99.90;;;;;;4146148;28;20394;-74
2021/09/21 01:42:57;;;;;;;24.08;15.95;;;6.00;99.90;;;;;;4145599;28;20034;-73
2021/09/21 01:44:58;;;;;;;22.90;16.38;;;5.90;99.90;;;;;;4150970;28;20033;-74
2021/09/21 01:47:03;;;;;;;23.20;15.88;;;5.80;99.90;;;;;;4145659;28;20056;-75
2021/09/21 01:49:03;;;;;;;27.85;16.33;;;5.80;99.90;;;;;;4139706;28;20048;-73
2021/09/21 01:51:14;;;;;;;23.80;16.58;;;5.70;99.90;;;;;;4143308;28;20031;-73
2021/09/21 01:53:23;;;;;;;21.60;14.85;;;5.80;99.90;;;;;;4139894;28;20438;-73
2021/09/21 02:00:03;;;;;;;22.02;15.70;;;5.80;99.90;;;;;;4146001;28;20412;-74
2021/09/21 02:02:04;;;;;;;25.00;15.82;;;5.80;99.90;;;;;;4145598;28;20074;-74
2021/09/21 02:04:08;;;;;;;24.05;17.15;;;5.80;99.90;;;;;;4146002;28;20057;-74
2021/09/21 02:06:09;;;;;;;;;;;5.80;99.90;;;;;;4145999;28;20424;-74
2021/09/21 02:08:09;;;;;;;20.98;14.10;;;5.80;99.90;;;;;;4141294;28;19932;-74
2021/09/21 02:10:10;;;;;;;23.73;15.93;;;5.80;99.90;;;;;;4145187;28;20030;-74
2021/09/21 02:12:11;;;;;;;20.38;15.23;;;5.80;99.90;;;;;;4145793;28;20105;-73
2021/09/21 02:14:14;;;;;;;18.75;14.65;;;5.80;99.90;;;;;;4143470;28;20124;-74
2021/09/21 02:16:14;;;;;;;26.02;17.70;;;5.80;99.90;;;;;;4143818;28;20042;-73
2021/09/21 02:18:15;;;;;;;26.67;17.15;;;5.90;99.90;;;;;;4144154;28;20034;-75
2021/09/21 02:20:16;;;;;;;23.77;16.50;;;5.90;99.90;;;;;;4146454;28;20446;-73
2021/09/21 02:22:17;;;;;;;25.08;15.75;;;6.00;99.90;;;;;;4146323;28;20049;-74
2021/09/21 02:24:22;;;;;;;26.27;16.52;;;6.00;99.90;;;;;;4144969;28;20069;-74
2021/09/21 02:26:24;;;;;;;22.45;15.60;;;5.90;99.90;;;;;;4144955;28;20022;-74
2021/09/21 02:28:24;;;;;;;22.63;16.17;;;6.00;99.90;;;;;;4144250;28;20058;-74
2021/09/21 02:30:25;;;;;;;21.80;15.10;;;6.00;99.90;;;;;;4148235;28;20026;-74
2021/09/21 02:32:26;;;;;;;23.75;16.08;;;6.00;99.90;;;;;;4144828;28;20401;-74
2021/09/21 02:34:26;;;;;;;21.08;15.63;;;6.00;99.90;;;;;;4146148;28;20208;-74
2021/09/21 02:36:28;;;;;;;22.42;15.52;;;6.00;99.90;;;;;;4143366;28;20112;-74
2021/09/21 02:38:28;;;;;;;19.13;15.20;;;6.00;99.90;;;;;;4146779;28;20060;-74
2021/09/21 02:40:30;;;;;;;20.75;15.18;;;6.00;99.90;;;;;;4144296;28;20543;-74
2021/09/21 02:42:30;;;;;;;23.42;16.05;;;6.00;99.90;;;;;;4146208;28;20548;-73
2021/09/21 02:44:31;;;;;;;22.83;15.48;;;6.10;99.90;;;;;;4146265;28;20041;-74
2021/09/21 02:46:32;;;;;;;22.80;16.33;;;6.10;99.90;;;;;;4146546;28;20044;-74
2021/09/21 02:48:33;;;;;;;20.92;15.55;;;6.20;99.90;;;;;;4146360;28;20026;-74
2021/09/21 02:50:34;;;;;;;27.02;17.02;;;6.20;99.90;;;;;;4144392;28;20049;-74
2021/09/21 02:52:36;;;;;;;25.48;16.63;;;6.20;99.90;;;;;;4145614;28;20038;-74
2021/09/21 02:54:37;;;;;;;22.60;15.90;;;6.30;99.90;;;;;;4145596;28;20034;-74
2021/09/21 02:56:38;;;;;;;21.60;15.30;;;6.20;99.90;;;;;;4146496;28;20030;-75
2021/09/21 02:58:39;;;;;;;22.65;15.63;;;6.20;99.90;;;;;;4143281;28;20038;-74
2021/09/21 03:00:41;;;;;;;23.85;15.02;;;6.20;99.90;;;;;;4152316;28;20037;-75
2021/09/21 03:02:43;;;;;;;23.20;15.18;;;6.20;99.90;;;;;;4145969;28;20046;-74
2021/09/21 03:04:53;;;;;;;21.97;15.83;;;6.10;99.90;;;;;;4145987;28;20030;-74
2021/09/21 03:07:02;;;;;;;23.02;15.20;;;6.10;99.90;;;;;;4145317;28;20096;-74
2021/09/21 03:09:47;;;;;;;21.23;15.52;;;6.10;99.90;;;;;;4145466;28;20377;-74
2021/09/21 03:11:27;;;;;;;24.08;15.20;;;6.10;99.90;;;;;;4141139;28;20099;-74
2021/09/21 03:18:04;;;;;;;23.42;15.32;;;5.90;99.90;;;;;;4143459;28;20045;-74
2021/09/21 03:20:06;;;;;;;21.65;15.63;;;5.80;99.90;;;;;;4145542;28;20038;-75
2021/09/21 03:22:06;;;;;;;18.33;14.60;;;5.80;99.90;;;;;;4144384;28;20469;-72
2021/09/21 03:24:07;;;;;;;19.65;13.73;;;5.80;99.90;;;;;;4145859;28;20081;-75
2021/09/21 03:26:08;;;;;;;24.15;13.88;;;5.60;99.90;;;;;;4146416;28;20036;-73
2021/09/21 03:28:09;;;;;;;25.83;16.00;;;5.60;99.90;;;;;;4144225;28;20445;-73
2021/09/21 03:30:11;;;;;;;24.40;16.08;;;5.60;99.90;;;;;;4145475;28;20026;-75
2021/09/21 03:32:12;;;;;;;24.50;17.13;;;5.50;99.90;;;;;;4144533;28;20042;-74
2021/09/21 03:34:12;;;;;;;25.70;16.15;;;5.50;99.90;;;;;;4146309;28;20045;-74
2021/09/21 03:36:13;;;;;;;21.88;14.30;;;5.50;99.90;;;;;;4140908;28;20493;-74
2021/09/21 03:38:14;;;;;;;24.58;16.08;;;5.50;99.90;;;;;;4160019;28;20029;-74
2021/09/21 03:40:15;;;;;;;21.48;14.68;;;5.50;99.90;;;;;;4144944;28;20402;-74
2021/09/21 03:42:15;;;;;;;22.75;16.48;;;5.40;99.90;;;;;;4145520;28;20129;-74
2021/09/21 03:44:16;;;;;;;23.20;16.15;;;5.40;99.90;;;;;;4144677;28;20101;-74
2021/09/21 03:46:17;;;;;;;24.33;16.17;;;5.40;99.90;;;;;;4148254;28;20037;-74
2021/09/21 03:48:18;;;;;;;25.05;15.93;;;5.40;99.90;;;;;;4142611;28;20030;-74
2021/09/21 03:50:19;;;;;;;26.70;16.70;;;5.40;99.90;;;;;;4146036;28;20396;-74
2021/09/21 03:52:19;;;;;;;23.42;14.77;;;5.40;99.90;;;;;;4142243;28;20053;-74
2021/09/21 03:54:20;;;;;;;23.35;15.85;;;5.50;99.90;;;;;;4146265;28;20030;-74
2021/09/21 03:56:21;;;;;;;24.63;16.17;;;5.50;99.90;;;;;;4146586;28;20410;-74
2021/09/21 03:58:22;;;;;;;24.63;16.30;;;5.50;99.90;;;;;;4146549;28;20039;-74
2021/09/21 04:00:22;;;;;;;24.95;16.95;;;5.50;99.90;;;;;;4152370;28;20034;-74
2021/09/21 04:02:23;;;;;;;22.77;16.50;;;5.50;99.90;;;;;;4144300;28;20375;-74
2021/09/21 04:04:24;;;;;;;25.30;17.92;;;5.40;99.90;;;;;;4144971;28;20111;-74
2021/09/21 04:06:25;;;;;;;24.08;17.05;;;5.40;99.90;;;;;;4147915;28;20496;-74
2021/09/21 04:08:26;;;;;;;26.35;16.92;;;5.40;99.90;;;;;;4145126;28;20085;-75
2021/09/21 04:10:26;;;;;;;28.27;16.27;;;5.40;99.90;;;;;;4142835;28;20425;-74
2021/09/21 04:12:27;;;;;;;26.90;16.70;;;5.40;99.90;;;;;;4148542;28;20056;-74
2021/09/21 04:14:31;;;;;;;22.25;15.60;;;5.50;99.90;;;;;;4147429;28;20413;-74
2021/09/21 04:16:31;;;;;;;27.88;16.63;;;5.50;99.90;;;;;;4143651;28;20050;-74
2021/09/21 04:18:32;;;;;;;24.77;15.88;;;5.50;99.90;;;;;;4146010;28;20110;-73
2021/09/21 04:20:33;;;;;;;24.48;15.18;;;5.50;99.90;;;;;;4146527;28;20046;-74
2021/09/21 04:22:33;;;;;;;28.05;17.10;;;5.60;99.90;;;;;;4148256;28;20078;-75
2021/09/21 04:24:35;;;;;;;28.08;17.90;;;5.70;99.90;;;;;;4146696;28;20073;-73
2021/09/21 04:26:36;;;;;;;23.83;16.60;;;5.80;99.90;;;;;;4148239;28;20117;-74
2021/09/21 04:28:40;;;;;;;26.90;17.17;;;6.00;99.90;;;;;;4143162;28;20041;-74
2021/09/21 04:30:42;;;;;;;25.98;16.42;;;6.10;99.90;;;;;;4146281;28;20033;-73
2021/09/21 04:32:43;;;;;;;25.98;17.83;;;6.30;99.90;;;;;;4145060;28;20045;-73
2021/09/21 04:34:47;;;;;;;28.92;16.83;;;6.40;99.90;;;;;;4149250;28;20029;-73
2021/09/21 04:36:47;;;;;;;;;;;6.40;99.90;;;;;;4145805;28;20037;-74
2021/09/21 04:38:48;;;;;;;36.20;16.67;;;6.50;99.90;;;;;;4143006;28;20735;-74
2021/09/21 04:40:49;;;;;;;25.30;16.75;;;6.50;99.90;;;;;;4144059;28;20053;-74
2021/09/21 04:42:49;;;;;;;22.90;15.82;;;6.50;99.90;;;;;;4143114;28;20034;-74
2021/09/21 04:44:50;;;;;;;26.40;17.40;;;6.40;99.90;;;;;;4145021;28;20063;-74
2021/09/21 04:46:51;;;;;;;25.05;16.58;;;6.50;99.90;;;;;;4146568;28;20065;-74
2021/09/21 04:48:52;;;;;;;23.73;16.20;;;6.50;99.90;;;;;;4146731;28;20038;-74
2021/09/21 04:50:53;;;;;;;20.58;15.10;;;6.50;99.90;;;;;;4143876;28;20484;-74
2021/09/21 04:52:53;;;;;;;25.58;16.27;;;6.50;99.90;;;;;;4147156;28;20038;-74
2021/09/21 04:54:54;;;;;;;28.48;15.82;;;6.40;99.90;;;;;;4144204;28;20034;-74
2021/09/21 04:56:55;;;;;;;19.77;15.48;;;6.40;99.90;;;;;;4149493;28;20041;-74
2021/09/21 04:58:55;;;;;;;24.80;17.45;;;6.40;99.90;;;;;;4146398;28;20091;-74
2021/09/21 05:00:56;;;;;;;24.50;15.85;;;6.30;99.90;;;;;;4149705;28;20444;-74
2021/09/21 05:02:57;;;;;;;24.25;15.68;;;6.30;99.90;;;;;;4146259;28;20038;-74
2021/09/21 05:04:57;;;;;;;24.23;16.63;;;6.50;99.90;;;;;;4147970;28;20038;-74
2021/09/21 05:06:58;;;;;;;26.15;16.98;;;6.50;99.90;;;;;;4145638;28;20532;-74
2021/09/21 05:08:58;;;;;;;22.13;15.32;;;6.60;99.90;;;;;;4147949;28;20030;-75
2021/09/21 05:10:59;;;;;;;22.75;16.25;;;6.60;99.90;;;;;;4144442;28;20037;-75
2021/09/21 05:13:00;;;;;;;29.25;16.30;;;6.70;99.90;;;;;;4146227;28;20030;-75
2021/09/21 05:15:00;;;;;;;26.20;17.52;;;6.70;99.90;;;;;;4152920;28;20037;-74
2021/09/21 05:17:01;;;;;;;24.00;16.15;;;6.80;99.90;;;;;;4146852;28;20092;-74
2021/09/21 05:19:02;;;;;;;27.27;17.42;;;6.80;99.90;;;;;;4147299;28;20089;-74
2021/09/21 05:21:03;;;;;;;22.00;15.65;;;6.80;99.90;;;;;;4143807;28;20513;-74
2021/09/21 05:23:03;;;;;;;24.58;15.98;;;6.80;99.90;;;;;;4145340;28;20034;-75
2021/09/21 05:25:06;;;;;;;27.35;16.83;;;6.90;99.90;;;;;;4146213;28;20108;-74
2021/09/21 05:27:06;;;;;;;24.23;15.93;;;7.00;99.90;;;;;;4143346;28;20434;-74
2021/09/21 05:29:07;;;;;;;23.70;14.32;;;7.00;99.90;;;;;;4146322;28;20037;-74
2021/09/21 05:31:07;;;;;;;23.92;15.32;;;7.00;99.90;;;;;;4151125;28;20034;-74
2021/09/21 05:33:08;;;;;;;36.15;25.58;;;7.10;99.90;;;;;;4143971;28;20038;-73
2021/09/21 05:35:09;;;;;;;27.65;20.77;;;7.20;99.90;;;;;;4146362;28;20524;-74
2021/09/21 05:37:10;;;;;;;29.08;20.05;;;7.20;99.90;;;;;;4138354;28;20026;-74
2021/09/21 05:39:14;;;;;;;23.80;16.60;;;7.20;99.90;;;;;;4139750;28;20129;-75
2021/09/21 05:41:14;;;;;;;28.52;16.15;;;7.30;99.90;;;;;;4135028;28;20472;-74
2021/09/21 05:43:15;;;;;;;21.75;15.25;;;7.50;99.90;;;;;;4140082;28;20169;-74
2021/09/21 05:45:16;;;;;;;26.05;16.67;;;7.50;99.90;;;;;;4135465;28;20031;-74
2021/09/21 05:47:16;;;;;;;21.10;15.52;;;7.50;99.90;;;;;;4141357;28;20034;-74
2021/09/21 05:49:17;;;;;;;23.08;16.83;;;7.60;99.90;;;;;;4136074;28;20109;-74
2021/09/21 05:51:17;;;;;;;23.23;17.33;;;7.60;99.90;;;;;;4138882;28;20570;-73
2021/09/21 05:53:18;;;;;;;25.23;16.85;;;7.60;99.90;;;;;;4138514;28;20037;-73
2021/09/21 05:55:19;;;;;;;18.33;14.68;;;7.60;99.90;;;;;;4138324;28;20062;-74
2021/09/21 05:57:20;;;;;;;20.83;15.35;;;7.60;99.90;;;;;;4137102;28;20352;-74
2021/09/21 05:59:20;;;;;;;24.20;17.00;;;7.60;99.90;;;;;;4139940;28;20069;-74
2021/09/21 06:01:21;;;;;;;21.70;15.45;;;7.60;99.90;;;;;;4145013;28;20516;-73
2021/09/21 06:03:21;;;;;;;24.85;16.98;;;7.60;99.90;;;;;;4146758;28;20030;-74
2021/09/21 06:05:22;;;;;;;24.73;15.60;;;7.60;99.90;;;;;;4145632;28;20045;-74
2021/09/21 06:07:22;;;;;;;21.15;15.60;;;7.60;99.90;;;;;;4147395;28;20069;-74
2021/09/21 06:09:23;;;;;;;19.20;14.93;;;7.70;99.90;;;;;;4141742;28;20112;-72
2021/09/21 06:11:28;;;;;;;29.77;15.88;;;7.70;99.90;;;;;;4136434;28;20039;-74
2021/09/21 06:13:29;;;;;;;19.23;14.98;;;7.80;99.90;;;;;;4141608;28;20544;-74
2021/09/21 06:15:30;;;;;;;24.75;18.70;;;7.90;99.90;;;;;;4146087;28;20038;-74
2021/09/21 06:17:30;;;;;;;22.05;15.07;;;8.00;99.90;;;;;;4146049;28;20547;-73
2021/09/21 06:19:31;;;;;;;20.83;14.65;;;8.20;99.90;;;;;;4128217;28;20031;-74
2021/09/21 06:21:32;;;;;;;20.38;15.98;;;8.30;99.90;;;;;;4145507;28;20038;-73
2021/09/21 06:23:32;;;;;;;20.25;14.60;;;8.60;99.90;;;;;;4146759;28;20508;-74
2021/09/21 06:25:34;;;;;;;19.00;15.40;;;;;;;;;;4144466;28;20172;-73
2021/09/21 06:27:35;;;;;;;19.80;13.43;;;8.80;99.90;;;;;;4146057;28;20050;-73
2021/09/21 06:29:36;;;;;;;15.30;13.18;;;8.90;99.90;;;;;;4144187;28;20037;-75
2021/09/21 06:31:36;;;;;;;21.42;15.23;;;9.00;99.90;;;;;;4144921;28;20116;-72
2021/09/21 06:33:37;;;;;;;22.70;14.65;;;9.10;99.90;;;;;;4147046;28;20049;-74
2021/09/21 06:35:38;;;;;;;16.25;13.00;;;9.20;99.90;;;;;;4145883;28;20089;-73
2021/09/21 06:37:38;;;;;;;17.92;13.77;;;9.20;99.90;;;;;;4145965;28;20473;-73
2021/09/21 06:39:39;;;;;;;16.10;13.85;;;9.40;99.90;;;;;;4146636;28;20036;-74
2021/09/21 06:41:39;;;;;;;20.40;12.73;;;9.50;99.90;;;;;;4145094;28;20501;-74
2021/09/21 06:43:40;;;;;;;20.08;13.85;;;9.60;99.90;;;;;;4141499;28;20125;-74
2021/09/21 06:45:42;;;;;;;19.92;13.60;;;9.60;99.90;;;;;;4142096;28;20848;-74
2021/09/21 06:47:43;;;;;;;17.17;13.63;;;9.50;99.90;;;;;;4142948;28;20038;-74
2021/09/21 06:49:44;;;;;;;16.20;13.38;;;9.50;99.90;;;;;;4150224;28;20058;-74
2021/09/21 06:51:45;;;;;;;17.75;12.77;;;9.40;99.90;;;;;;4149232;28;20547;-74
2021/09/21 06:53:45;;;;;;;15.80;13.07;;;9.40;99.90;;;;;;4143390;28;20042;-74
2021/09/21 06:55:46;;;;;;;15.93;13.65;;;9.30;99.90;;;;;;4144458;28;20034;-74
2021/09/21 06:57:52;;;;;;;15.32;12.00;;;9.30;99.90;;;;;;4145261;28;20120;-74
2021/09/21 06:59:56;;;;;;;19.20;12.38;;;9.30;99.90;;;;;;4146609;28;20037;-73
2021/09/21 07:01:57;;;;;;;16.50;13.10;;;9.30;99.90;;;;;;4144993;28;20148;-74
2021/09/21 07:03:57;;;;;;;18.20;13.63;;;9.30;99.90;;;;;;4146769;28;20034;-73
2021/09/21 07:05:58;;;;;;;20.83;14.80;;;9.30;99.90;;;;;;4145898;28;20034;-74
2021/09/21 07:07:59;;;;;;;20.17;14.95;;;9.40;99.90;;;;;;4145095;28;20421;-74
2021/09/21 07:10:00;;;;;;;20.02;13.48;;;9.40;99.90;;;;;;4145081;28;20026;-74
2021/09/21 07:12:01;;;;;;;22.02;13.18;;;9.50;99.90;;;;;;4138163;28;20473;-73
2021/09/21 07:14:02;;;;;;;17.70;13.23;;;9.60;99.90;;;;;;4146089;28;20044;-74
2021/09/21 07:16:03;;;;;;;15.68;13.27;;;9.60;99.90;;;;;;4151961;28;20030;-74
2021/09/21 07:18:04;;;;;;;16.65;12.85;;;9.70;99.90;;;;;;4145398;28;20038;-74
2021/09/21 07:20:06;;;;;;;13.68;11.60;;;9.90;99.90;;;;;;4146305;28;20057;-74
2021/09/21 07:22:07;;;;;;;15.75;12.98;;;10.00;99.90;;;;;;4142387;28;20026;-74
2021/09/21 07:24:07;;;;;;;16.42;12.88;;;10.10;99.90;;;;;;4144725;28;20122;-74
2021/09/21 07:26:08;;;;;;;14.35;12.00;;;10.30;99.90;;;;;;4146149;28;20486;-74
2021/09/21 07:28:09;;;;;;;17.33;13.48;;;10.40;99.90;;;;;;4144581;28;20025;-73
2021/09/21 07:30:10;;;;;;;16.95;12.73;;;10.60;99.90;;;;;;4144919;28;20060;-74
2021/09/21 07:32:11;;;;;;;17.95;12.18;;;10.70;99.90;;;;;;4146431;28;20141;-74
2021/09/21 07:34:12;;;;;;;13.80;11.52;;;10.90;99.90;;;;;;4146345;28;20038;-75
2021/09/21 07:36:12;;;;;;;14.48;12.02;;;11.00;99.90;;;;;;4141228;28;20030;-75
2021/09/21 07:38:13;;;;;;;16.55;12.13;;;11.20;99.90;;;;;;4145446;28;20030;-74
2021/09/21 07:40:19;;;;;;;14.57;12.48;;;11.30;99.90;;;;;;4144639;28;20038;-74
2021/09/21 07:42:19;;;;;;;16.02;11.00;;;11.50;99.90;;;;;;4145570;28;20444;-74
2021/09/21 07:44:21;;;;;;;16.90;12.20;;;11.70;99.90;;;;;;4142839;28;20061;-74
2021/09/21 07:46:21;;;;;;;13.68;11.32;;;11.80;99.90;;;;;;4145807;28;20044;-74
2021/09/21 07:48:22;;;;;;;14.45;11.43;;;11.90;99.90;;;;;;4144940;28;20516;-73
2021/09/21 07:50:24;;;;;;;17.85;11.85;;;12.00;99.90;;;;;;4142972;28;20033;-73
2021/09/21 07:52:26;;;;;;;14.95;10.95;;;12.10;99.90;;;;;;4139561;28;20026;-73
2021/09/21 07:54:27;;;;;;;14.23;10.70;;;12.20;99.90;;;;;;4138701;28;20041;-73
2021/09/21 07:56:28;;;;;;;15.13;11.32;;;12.30;99.90;;;;;;4144332;28;20026;-72
2021/09/21 07:58:29;;;;;;;12.52;10.75;;;12.40;99.90;;;;;;4141662;28;20105;-74
2021/09/21 08:00:30;;;;;;;16.27;11.18;;;12.50;99.90;;;;;;4135687;28;20061;-73
2021/09/21 08:02:31;;;;;;;17.63;10.98;;;12.60;99.90;;;;;;4138740;28;20027;-73
2021/09/21 08:04:31;;;;;;;12.88;9.75;;;12.60;99.90;;;;;;4138626;28;20825;-74
2021/09/21 08:06:32;;;;;;;12.45;10.52;;;12.70;99.90;;;;;;4134001;28;20034;-74
2021/09/21 08:08:33;;;;;;;14.30;11.57;;;12.80;99.90;;;;;;4136336;28;20065;-74
2021/09/21 08:10:35;;;;;;;14.60;11.15;;;12.90;99.90;;;;;;4130346;28;20537;-74
2021/09/21 08:12:35;;;;;;;12.82;10.52;;;13.00;99.90;;;;;;4133974;28;20771;-73
2021/09/21 08:14:37;;;;;;;14.27;11.40;;;13.10;99.90;;;;;;4133919;28;20037;-73
2021/09/21 08:16:38;;;;;;;14.57;11.13;;;13.20;99.90;;;;;;4134618;28;20543;-74
2021/09/21 08:18:39;;;;;;;14.00;10.05;;;13.40;99.90;;;;;;4135976;28;20038;-75
2021/09/21 08:20:40;;;;;;;17.20;11.68;;;13.50;99.90;;;;;;4131667;28;20041;-74
2021/09/21 08:22:41;;;;;;;16.48;10.98;;;13.60;99.90;;;;;;4135178;28;20097;-74
2021/09/21 08:24:43;;;;;;;15.70;11.35;;;13.80;99.90;;;;;;4134724;28;20461;-75
2021/09/21 08:26:43;;;;;;;15.15;11.57;;;13.90;99.90;;;;;;4134561;28;20046;-74
2021/09/21 08:28:44;;;;;;;14.02;9.77;;;14.10;99.90;;;;;;4135409;28;20034;-74
2021/09/21 08:30:45;;;;;;;16.42;10.43;;;14.20;99.90;;;;;;4135526;28;20045;-73
2021/09/21 08:32:46;;;;;;;17.35;11.52;;;14.40;99.90;;;;;;4135448;28;20057;-74
2021/09/21 08:34:47;;;;;;;13.23;10.05;;;14.60;99.90;;;;;;4134057;28;20093;-74
2021/09/21 08:36:50;;;;;;;18.65;11.52;;;14.80;99.90;;;;;;4137588;28;20054;-74
2021/09/21 08:38:50;;;;;;;;;;;15.10;99.90;;;;;;4136933;28;20121;-74
2021/09/21 08:40:51;;;;;;;13.57;9.45;;;15.30;99.90;;;;;;4136582;28;19953;-74
2021/09/21 08:42:52;;;;;;;12.10;7.90;;;15.50;99.90;;;;;;4137677;28;20636;-75
2021/09/21 08:44:53;;;;;;;8.35;7.35;;;15.70;99.90;;;;;;4139530;28;20124;-73
2021/09/21 08:46:54;;;;;;;13.82;6.97;;;15.80;99.90;;;;;;4137195;28;20033;-75
2021/09/21 08:48:54;;;;;;;9.20;6.60;;;16.00;99.90;;;;;;4140089;28;20037;-73
2021/09/21 08:50:56;;;;;;;6.55;5.30;;;16.20;99.90;;;;;;4137946;28;20022;-73
2021/09/21 08:52:57;;;;;;;11.10;6.40;;;16.30;99.90;;;;;;4137510;28;20448;-74
2021/09/21 08:54:57;;;;;;;8.02;6.03;;;16.40;99.90;;;;;;4137682;28;20026;-75
2021/09/21 08:56:59;;;;;;;6.40;5.10;;;16.50;99.90;;;;;;4137166;28;20034;-75
2021/09/21 08:59:09;;;;;;;5.50;4.47;;;16.60;99.90;;;;;;4136966;28;20049;-72
2021/09/21 09:01:12;;;;;;;5.18;4.68;;;16.60;99.90;;;;;;4137301;28;20022;-74
2021/09/21 09:03:16;;;;;;;5.93;4.70;;;16.70;99.90;;;;;;4137751;28;20033;-74
2021/09/21 09:05:17;;;;;;;6.35;4.35;;;16.60;99.90;;;;;;4136284;28;20781;-72
2021/09/21 09:07:17;;;;;;;4.85;4.22;;;16.70;99.90;;;;;;4136392;28;20066;-74
2021/09/21 09:09:21;;;;;;;5.13;3.85;;;16.70;99.90;;;;;;4136837;28;20034;-75
2021/09/21 09:11:25;;;;;;;4.68;4.07;;;16.80;99.90;;;;;;4137160;28;20079;-74
2021/09/21 09:13:32;;;;;;;4.43;3.97;;;16.80;99.90;;;;;;4137315;28;20053;-73
2021/09/21 09:15:32;;;;;;;5.75;3.50;;;16.80;99.90;;;;;;4139223;28;20103;-74
2021/09/21 09:17:33;;;;;;;4.03;3.63;;;17.00;99.90;;;;;;4135385;28;20030;-74
2021/09/21 09:19:49;;;;;;;3.92;3.50;;;17.00;99.90;;;;;;4137886;28;20033;-73
2021/09/21 09:21:50;;;;;;;4.50;3.90;;;17.10;99.90;;;;;;4137586;28;20137;-72
2021/09/21 09:23:52;;;;;;;4.80;3.90;;;17.40;99.90;;;;;;4136751;28;20509;-75
2021/09/21 09:25:53;;;;;;;4.65;3.75;;;17.60;99.90;;;;;;4136849;28;20038;-74
2021/09/21 09:27:54;;;;;;;5.30;3.50;;;17.80;99.90;;;;;;4137020;28;20049;-74
2021/09/21 09:30:00;;;;;;;5.40;3.58;;;18.00;99.90;;;;;;4136651;28;20038;-73
2021/09/21 09:32:01;;;;;;;7.03;3.78;;;18.10;99.90;;;;;;4136496;28;21347;-73
2021/09/21 09:34:21;;;;;;;5.07;3.90;;;18.40;99.90;;;;;;4138295;28;20117;-74
2021/09/21 09:36:23;;;;;;;6.72;4.43;;;18.70;99.90;;;;;;4136230;28;20041;-73
2021/09/21 09:38:24;;;;;;;4.00;3.60;;;18.90;99.90;;;;;;4136648;28;20030;-73
2021/09/21 09:40:26;;;;;;;4.32;3.92;;;19.00;99.90;;;;;;4136634;28;20044;-73
2021/09/21 09:42:33;;;;;;;4.97;4.43;;;19.10;99.90;;;;;;4135754;28;20108;-73
2021/09/21 09:44:34;;;;;;;5.55;4.10;;;19.10;99.90;;;;;;4136829;28;20038;-73
2021/09/21 09:47:04;;;;;;;5.53;4.57;;;19.20;99.90;;;;;;4134298;28;20034;-73
2021/09/21 09:49:04;;;;;;;4.50;3.97;;;19.40;99.90;;;;;;4133933;28;20485;-71
2021/09/21 10:20:03;;;;;;;5.18;4.32;;;20.90;99.90;;;;;;4138088;27;20405;-73
2021/09/21 11:38:09;;;;;;;6.63;3.65;;;25.30;99.90;;;;;;4157258;27;20423;-73
2021/09/21 11:40:26;;;;;;;5.17;3.37;;;25.00;99.90;;;;;;4189012;28;20505;-74
2021/09/21 11:42:31;;;;;;;3.67;3.33;;;24.40;99.90;;;;;;4190205;28;20036;-73
2021/09/21 11:44:41;;;;;;;3.67;3.30;;;24.50;99.90;;;;;;4191904;28;20036;-72
2021/09/21 11:46:41;;;;;;;5.32;3.40;;;24.70;99.90;;;;;;4172941;28;20060;-73
2021/09/21 11:48:42;;;;;;;3.60;3.30;;;24.50;99.90;;;;;;4208681;28;20055;-72
2021/09/21 11:50:44;;;;;;;3.85;3.45;;;24.30;99.90;;;;;;4186930;28;20040;-73
2021/09/21 11:52:52;;;;;;;4.53;3.38;;;24.60;99.90;;;;;;4190696;28;20036;-73
2021/09/21 11:54:52;;;;;;;4.68;2.95;;;24.80;99.90;;;;;;4187394;28;20040;-72
2021/09/21 11:56:57;;;;;;;3.35;3.05;;;24.80;99.90;;;;;;4187321;28;20572;-73
2021/09/21 11:59:01;;;;;;;5.25;3.15;;;24.70;99.90;;;;;;4189504;28;20032;-71
2021/09/21 12:01:07;;;;;;;4.03;3.05;;;24.70;99.90;;;;;;4189628;28;21367;-71
2021/09/21 12:03:17;;;;;;;3.65;3.33;;;24.30;99.90;;;;;;4189844;28;20056;-73
2021/09/21 12:05:18;;;;;;;3.83;3.25;;;24.00;99.90;;;;;;4172204;28;20037;-73
2021/09/21 12:07:19;;;;;;;3.40;3.10;;;23.50;99.90;;;;;;4174732;28;20354;-72
2021/09/21 12:09:20;;;;;;;5.75;3.33;;;23.40;99.90;;;;;;4172885;28;20110;-72
2021/09/21 12:11:21;;;;;;;3.35;3.00;;;23.20;99.90;;;;;;4155535;28;20572;-73
2021/09/21 12:13:24;;;;;;;4.90;3.30;;;23.20;99.90;;;;;;4189463;28;20131;-72
2021/09/21 12:15:25;;;;;;;4.90;3.30;;;23.00;99.90;;;;;;4171035;28;20041;-73
2021/09/21 12:17:27;;;;;;;3.45;2.85;;;22.90;99.90;;;;;;4175308;28;20135;-74
2021/09/21 12:19:28;;;;;;;3.40;3.10;;;22.80;99.90;;;;;;4166529;28;20122;-74
2021/09/21 12:21:29;;;;;;;3.58;3.28;;;22.90;99.90;;;;;;4172412;28;20581;-74